Charlevoix, MI (49720)

8:05 AM EST on March 01, 2015 (GMT -0500)
1.5 W Ironton | Change Station
CLOSE
Current Station
Personal Weather Station
Location: Charlevoix, MI
Elevation: 750 ft
Nearby Weather Stations

Elev 750 ft 45.26 °N, 85.22 °W | Updated 9 seconds ago

Overcast
Overcast
14.5 °F
Feels Like 8 °F
N
4.0
Wind Variable Wind from South
Gusts 5.0 mph

Today
High -- | Low -- °F
--% Chance of Precip.
Yesterday
High -- | Low -- °F
Precip. -- in
7:19 AM 6:27 PM
Waxing Gibbous, 85% visible
Pressure 30.33 in
Visibility 5.0 miles
Clouds Mostly Cloudy 3000 ft
Overcast 3500 ft
Windchill 8 °F
Dew Point 11 °F
Humidity 85%
Rainfall 0.00 in
Snow Depth Not available.
UV 0 out of 12
Pollen .30 out of 12
Air Quality Not available.
Flu Activity Not available.
METAR KCVX 011255Z AUTO 19004KT 5SM -SN BKN030 OVC035 M09/M12 A3033 RMK AO2 T10951120

More Conditions Fewer Conditions

Pressure 30.33 in
Visibility 5.0 miles
Clouds Mostly Cloudy 3000 ft
Overcast 3500 ft
Windchill 8 °F
Dew Point 11 °F
Humidity 85%
Rainfall 0.00 in
Snow Depth Not available.
UV 0 out of 12
Pollen .30 out of 12
Air Quality Not available.
Flu Activity Not available.
METAR KCVX 011255Z AUTO 19004KT 5SM -SN BKN030 OVC035 M09/M12 A3033 RMK AO2 T10951120

More Conditions Fewer Conditions

Nowcast | as of 8:00 am EST on March 1, 2015

At 9 am...mostly cloudy. Chance of snow showers. Temperature 16. Southwest winds 8 mph. At 11 am...mostly cloudy. Chance of snow showers. Temperature 19. Southwest winds 10 mph. At 1 PM...mostly cloudy. Chance of snow showers. Temperature 24. Southwest winds 12 mph. At 3 PM...mostly cloudy. Chance of snow showers. Temperature 25. Southwest winds 12 mph.

×

10-Day Weather Forecast

Almanac

Astronomy

Mar. 01, 2015 Rise Set
Actual Time
Civil Twilight
Nautical Twilight
Astronomical Twilight
Moon
Length of Visible Light
Length of Day
Tomorrow will be .
, % of the Moon is Illuminated

Today's Extremes

State Highs State Lows

Community

WunderPhotos

Upload Photos

1,801,373 photos uploaded!

WunderBlogs® & News

Nearby

Air Quality

  Air Quality AQ Index Pollutant
Not available.

Snow Depth

Station Depth Elevation

Earthquake Activity

City Distance Mag. Time & Date
Minimum magnitude displayed is 2.5.

Coastal Water Temperatures

Place Temperature

Nearby Weather Stations